Tanit — 2DYL7 — position and weather

sailwx.info

Track history (hours):
 
Tides and Currents Weather Stations Pressure Air Temp Water Temp Dewpoint Dewpoint Depression Visibility Wind Speed Wind Dir Waves Ship Positions

Tanit

Last reported at 2014-Jul-27 15:31 UTC. Time now 2014-Jul-30 07:13 UTC.
Position N 40°34' E 014°16'.

Length 46 m; draft 2.8 m.

Type: Pleasure craft. MMSI: 235083004.

Date/timePositionNaut miles runAvg speedWind from/ knotsBaromVisibWave heightAir tempDewpointWater temp
2014-Jul-27 15:31N 40°34' E 014°16'2 1.6
2014-Jul-27 14:33N 40°34' E 014°14'0 0.0
2014-Jul-27 13:30N 40°34' E 014°14'0 0.0
2014-Jul-27 12:18N 40°34' E 014°14'0 0.0
2014-Jul-27 11:30N 40°34' E 014°14'0 0.0
2014-Jul-27 10:15N 40°34' E 014°14'0 0.0
2014-Jul-27 09:09N 40°34' E 014°14'0 0.0
2014-Jul-27 08:30N 40°34' E 014°14'0 0.0
2014-Jul-27 07:33N 40°34' E 014°14'0 0.0
2014-Jul-27 06:24N 40°34' E 014°14'0 0.0
2014-Jul-27 05:27N 40°34' E 014°14'0 0.0
2014-Jul-27 04:27N 40°34' E 014°14'0 0.0
2014-Jul-27 03:33N 40°34' E 014°14'1 0.1
2014-Jul-26 14:09N 40°33' E 014°14'0 0.0
2014-Jul-26 04:25N 40°33' E 014°14'0 0.0
2014-Jul-25 22:24N 40°33' E 014°14'0 0.0
2014-Jul-25 21:27N 40°33' E 014°14'0 0.0
2014-Jul-25 19:15N 40°33' E 014°14'9 0.6
2014-Jul-25 05:05N 40°33' E 014°03'611.1
2014-Jul-25 04:32N 40°34' E 013°55'49611.0
2014-Jul-23 07:33N 39°20' E 003°15'1110.8
2014-Jul-23 06:33N 39°16' E 003°02'1211.5
2014-Jul-23 05:28N 39°21' E 002°47'1011.2
2014-Jul-23 04:33N 39°29' E 002°39'4 4.0
2014-Jul-23 03:32N 39°33' E 002°36'0 0.0
2014-Jul-23 02:32N 39°33' E 002°36'0 0.0
2014-Jul-23 01:32N 39°33' E 002°36'0 0.0
2014-Jul-23 00:26N 39°33' E 002°36'0 0.0
2014-Jul-22 23:32N 39°33' E 002°36'0 0.0
2014-Jul-22 22:28N 39°33' E 002°36'0 0.0
2014-Jul-22 21:32N 39°33' E 002°36'0 0.0
2014-Jul-22 20:32N 39°33' E 002°36'0 0.0
2014-Jul-22 19:32N 39°33' E 002°36'0 0.0
2014-Jul-22 18:32N 39°33' E 002°36'0 0.0
2014-Jul-22 17:32N 39°33' E 002°36'6 5.7
2014-Jul-22 16:34N 39°28' E 002°33'1211.9
2014-Jul-22 15:33N 39°22' E 002°20'1212.1
2014-Jul-22 14:33N 39°15' E 002°07'1212.2
2014-Jul-22 13:33N 39°08' E 001°54'1212.0
2014-Jul-22 12:31N 39°01' E 001°41'16 0.5
2014-Jul-21 06:30N 38°50' E 001°26'5 0.3
2014-Jul-20 11:29N 38°45' E 001°27'2 0.1
2014-Jul-19 12:21N 38°44' E 001°28'  
Track history (hours):
 
Tides and Currents Weather Stations Pressure Air Temp Water Temp Dewpoint Dewpoint Depression Visibility Wind Speed Wind Dir Waves Ship Positions

Tanit

Last reported at 2014-Jul-27 15:31 UTC. Time now 2014-Jul-30 07:13 UTC.
Position N 40°34' E 014°16'.

Length 46 m; draft 2.8 m.

Type: Pleasure craft. MMSI: 235083004.

Date/timePositionNaut miles runAvg speedWind from/ knotsBaromVisibWave heightAir tempDewpointWater temp
2014-Jul-27 15:31N 40°34' E 014°16'2 1.6
2014-Jul-27 14:33N 40°34' E 014°14'0 0.0
2014-Jul-27 13:30N 40°34' E 014°14'0 0.0
2014-Jul-27 12:18N 40°34' E 014°14'0 0.0
2014-Jul-27 11:30N 40°34' E 014°14'0 0.0
2014-Jul-27 10:15N 40°34' E 014°14'0 0.0
2014-Jul-27 09:09N 40°34' E 014°14'0 0.0
2014-Jul-27 08:30N 40°34' E 014°14'0 0.0
2014-Jul-27 07:33N 40°34' E 014°14'0 0.0
2014-Jul-27 06:24N 40°34' E 014°14'0 0.0
2014-Jul-27 05:27N 40°34' E 014°14'0 0.0
2014-Jul-27 04:27N 40°34' E 014°14'0 0.0
2014-Jul-27 03:33N 40°34' E 014°14'1 0.1
2014-Jul-26 14:09N 40°33' E 014°14'0 0.0
2014-Jul-26 04:25N 40°33' E 014°14'0 0.0
2014-Jul-25 22:24N 40°33' E 014°14'0 0.0
2014-Jul-25 21:27N 40°33' E 014°14'0 0.0
2014-Jul-25 19:15N 40°33' E 014°14'9 0.6
2014-Jul-25 05:05N 40°33' E 014°03'611.1
2014-Jul-25 04:32N 40°34' E 013°55'49611.0
2014-Jul-23 07:33N 39°20' E 003°15'1110.8
2014-Jul-23 06:33N 39°16' E 003°02'1211.5
2014-Jul-23 05:28N 39°21' E 002°47'1011.2
2014-Jul-23 04:33N 39°29' E 002°39'4 4.0
2014-Jul-23 03:32N 39°33' E 002°36'0 0.0
2014-Jul-23 02:32N 39°33' E 002°36'0 0.0
2014-Jul-23 01:32N 39°33' E 002°36'0 0.0
2014-Jul-23 00:26N 39°33' E 002°36'0 0.0
2014-Jul-22 23:32N 39°33' E 002°36'0 0.0
2014-Jul-22 22:28N 39°33' E 002°36'0 0.0
2014-Jul-22 21:32N 39°33' E 002°36'0 0.0
2014-Jul-22 20:32N 39°33' E 002°36'0 0.0
2014-Jul-22 19:32N 39°33' E 002°36'0 0.0
2014-Jul-22 18:32N 39°33' E 002°36'0 0.0
2014-Jul-22 17:32N 39°33' E 002°36'6 5.7
2014-Jul-22 16:34N 39°28' E 002°33'1211.9
2014-Jul-22 15:33N 39°22' E 002°20'1212.1
2014-Jul-22 14:33N 39°15' E 002°07'1212.2
2014-Jul-22 13:33N 39°08' E 001°54'1212.0
2014-Jul-22 12:31N 39°01' E 001°41'16 0.5
2014-Jul-21 06:30N 38°50' E 001°26'5 0.3
2014-Jul-20 11:29N 38°45' E 001°27'2 0.1
2014-Jul-19 12:21N 38°44' E 001°28'  

Dump ship's entire track history